R/v Auk — NOAA — position and weather

sailwx.info

Track history (hours):
 
Tides and Currents Weather Stations Pressure Air Temp Water Temp Dewpoint Dewpoint Depression Visibility Wind Speed Wind Dir Waves Ship Positions

R/v Auk

Last reported at 2018-Jul-15 19:35 UTC. Time now 2018-Jul-16 00:34 UTC.
Position N 42°18' W 070°47'.

Length 15 m; draft 1.7 m.

Type: Ship. MMSI: 369871000.

Date/timePositionNaut miles runAvg speedWind from/ knotsBaromVisibWave heightAir tempDewpointWater temp
2018-Jul-15 19:35N 42°18' W 070°47'115.9
2018-Jul-15 19:30N 42°19' W 070°49'713.5
2018-Jul-15 19:00N 42°20' W 070°57'4 7.6
2018-Jul-15 18:30N 42°18' W 071°02'0 0.1
2018-Jul-15 14:35N 42°18' W 071°02'0 0.1
2018-Jul-15 14:30N 42°18' W 071°02'0 0.1
2018-Jul-15 14:00N 42°18' W 071°02'0 0.0
2018-Jul-15 13:31N 42°18' W 071°02'0 0.1
2018-Jul-15 13:00N 42°18' W 071°02'3 5.1
2018-Jul-15 12:30N 42°20' W 070°60'612.3
2018-Jul-15 11:59N 42°19' W 070°51'9 0.2
2018-Jul-13 20:34N 42°12' W 070°43'0 0.0
2018-Jul-13 20:30N 42°12' W 070°43'4 8.3
2018-Jul-13 20:00N 42°15' W 070°39'714.1
2018-Jul-13 19:30N 42°21' W 070°34'713.8
2018-Jul-13 19:00N 42°27' W 070°29'510.6
2018-Jul-13 18:30N 42°25' W 070°22'3 6.3
2018-Jul-13 18:00N 42°24' W 070°26'3 5.8
2018-Jul-13 17:30N 42°22' W 070°23'510.5
2018-Jul-13 17:00N 42°21' W 070°16'3 6.0
2018-Jul-13 16:29N 42°19' W 070°19'4 8.5
2018-Jul-13 16:00N 42°17' W 070°15'3 4.9
2018-Jul-13 15:28N 42°14' W 070°14'510.0
2018-Jul-13 15:01N 42°12' W 070°20'4 8.5
2018-Jul-13 14:29N 42°11' W 070°14'5 4.5
2018-Jul-13 13:21N 42°09' W 070°20'512.3
2018-Jul-13 12:57N 42°10' W 070°27'815.2
2018-Jul-13 12:25N 42°11' W 070°37'4 9.0
2018-Jul-13 12:00N 42°12' W 070°42'1 1.3
2018-Jul-13 11:30N 42°12' W 070°43'0 0.4
2018-Jul-13 11:00N 42°12' W 070°43'0 0.0
2018-Jul-12 19:12N 42°12' W 070°43'0 0.0
2018-Jul-12 18:58N 42°12' W 070°43'  
Track history (hours):
 
Tides and Currents Weather Stations Pressure Air Temp Water Temp Dewpoint Dewpoint Depression Visibility Wind Speed Wind Dir Waves Ship Positions

R/v Auk

Last reported at 2018-Jul-15 19:35 UTC. Time now 2018-Jul-16 00:34 UTC.
Position N 42°18' W 070°47'.

Length 15 m; draft 1.7 m.

Type: Ship. MMSI: 369871000.

Date/timePositionNaut miles runAvg speedWind from/ knotsBaromVisibWave heightAir tempDewpointWater temp
2018-Jul-15 19:35N 42°18' W 070°47'115.9
2018-Jul-15 19:30N 42°19' W 070°49'713.5
2018-Jul-15 19:00N 42°20' W 070°57'4 7.6
2018-Jul-15 18:30N 42°18' W 071°02'0 0.1
2018-Jul-15 14:35N 42°18' W 071°02'0 0.1
2018-Jul-15 14:30N 42°18' W 071°02'0 0.1
2018-Jul-15 14:00N 42°18' W 071°02'0 0.0
2018-Jul-15 13:31N 42°18' W 071°02'0 0.1
2018-Jul-15 13:00N 42°18' W 071°02'3 5.1
2018-Jul-15 12:30N 42°20' W 070°60'612.3
2018-Jul-15 11:59N 42°19' W 070°51'9 0.2
2018-Jul-13 20:34N 42°12' W 070°43'0 0.0
2018-Jul-13 20:30N 42°12' W 070°43'4 8.3
2018-Jul-13 20:00N 42°15' W 070°39'714.1
2018-Jul-13 19:30N 42°21' W 070°34'713.8
2018-Jul-13 19:00N 42°27' W 070°29'510.6
2018-Jul-13 18:30N 42°25' W 070°22'3 6.3
2018-Jul-13 18:00N 42°24' W 070°26'3 5.8
2018-Jul-13 17:30N 42°22' W 070°23'510.5
2018-Jul-13 17:00N 42°21' W 070°16'3 6.0
2018-Jul-13 16:29N 42°19' W 070°19'4 8.5
2018-Jul-13 16:00N 42°17' W 070°15'3 4.9
2018-Jul-13 15:28N 42°14' W 070°14'510.0
2018-Jul-13 15:01N 42°12' W 070°20'4 8.5
2018-Jul-13 14:29N 42°11' W 070°14'5 4.5
2018-Jul-13 13:21N 42°09' W 070°20'512.3
2018-Jul-13 12:57N 42°10' W 070°27'815.2
2018-Jul-13 12:25N 42°11' W 070°37'4 9.0
2018-Jul-13 12:00N 42°12' W 070°42'1 1.3
2018-Jul-13 11:30N 42°12' W 070°43'0 0.4
2018-Jul-13 11:00N 42°12' W 070°43'0 0.0
2018-Jul-12 19:12N 42°12' W 070°43'0 0.0
2018-Jul-12 18:58N 42°12' W 070°43'  

Dump ship's entire track history